createdAt,value
2019-03-22T00:02:22.772Z,6.51
2019-03-22T00:04:52.687Z,6.48
2019-03-22T00:07:29.200Z,6.44
2019-03-22T00:09:59.116Z,6.40
2019-03-22T00:12:29.086Z,6.37
2019-03-22T00:14:59.131Z,6.34
2019-03-22T00:17:29.126Z,6.28
2019-03-22T00:19:59.040Z,6.25
2019-03-22T00:22:29.800Z,6.18
2019-03-22T00:24:59.738Z,6.11
2019-03-22T00:27:29.652Z,6.02
2019-03-22T00:29:59.665Z,5.97
2019-03-22T00:32:29.580Z,5.91
2019-03-22T00:34:59.680Z,5.86
2019-03-22T00:37:29.654Z,5.80
2019-03-22T00:40:18.229Z,5.71
2019-03-22T00:42:48.291Z,5.66
2019-03-22T00:48:02.216Z,5.52
2019-03-22T00:50:32.414Z,5.45
2019-03-22T00:53:02.419Z,5.36
2019-03-22T00:58:09.482Z,5.18
2019-03-22T01:03:28.752Z,5.05
2019-03-22T01:05:58.906Z,5.01
2019-03-22T01:08:28.975Z,4.95
2019-03-22T01:10:59.267Z,4.89
2019-03-22T01:13:29.347Z,4.84
2019-03-22T01:21:25.119Z,4.64
2019-03-22T01:24:06.282Z,4.59
2019-03-22T01:26:36.228Z,4.55
2019-03-22T01:29:25.266Z,4.53
2019-03-22T01:32:14.179Z,4.52
2019-03-22T01:42:47.207Z,4.48
2019-03-22T01:45:17.664Z,4.47
2019-03-22T01:47:47.646Z,4.47
2019-03-22T01:50:36.431Z,4.43
2019-03-22T01:53:19.081Z,4.43
2019-03-22T01:58:24.023Z,4.32
2019-03-22T02:00:53.990Z,4.29
2019-03-22T02:03:23.912Z,4.31
2019-03-22T02:05:53.824Z,4.26
2019-03-22T02:08:24.047Z,4.23
2019-03-22T02:10:53.964Z,4.20
2019-03-22T02:13:29.013Z,4.10
2019-03-22T02:15:59.167Z,4.14
2019-03-22T02:18:29.086Z,4.14
2019-03-22T02:21:17.799Z,4.12
2019-03-22T02:26:42.395Z,4.05
2019-03-22T02:29:21.459Z,3.99
2019-03-22T02:31:51.450Z,3.96
2019-03-22T02:34:21.385Z,3.94
2019-03-22T02:36:51.428Z,3.89
2019-03-22T02:39:21.531Z,3.87
2019-03-22T02:41:51.498Z,3.79
2019-03-22T02:44:28.182Z,3.75
2019-03-22T02:46:58.215Z,3.72
2019-03-22T02:49:28.570Z,3.69
2019-03-22T02:51:58.560Z,3.65
2019-03-22T02:54:29.084Z,3.53
2019-03-22T02:56:59.051Z,3.53
2019-03-22T02:59:47.723Z,3.43
2019-03-22T03:02:17.901Z,3.37
2019-03-22T03:04:47.944Z,3.29
2019-03-22T03:07:18.068Z,3.19
2019-03-22T03:09:48.032Z,3.08
2019-03-22T03:12:18.123Z,3.01
2019-03-22T03:14:48.596Z,2.93
2019-03-22T03:17:18.604Z,2.82
2019-03-22T03:20:07.689Z,2.65
2019-03-22T03:22:49.196Z,2.53
2019-03-22T03:25:19.365Z,2.53
2019-03-22T03:28:08.118Z,2.25
2019-03-22T03:30:49.100Z,2.22
2019-03-22T03:33:19.849Z,2.22
2019-03-22T03:36:08.660Z,2.07
2019-03-22T03:38:38.577Z,2.07
2019-03-22T03:41:27.370Z,1.96
2019-03-22T03:46:46.899Z,1.83
2019-03-22T03:49:18.896Z,1.83
2019-03-22T03:51:49.154Z,1.76
2019-03-22T03:54:19.134Z,1.70
2019-03-22T03:56:49.047Z,1.67
2019-03-22T03:59:18.998Z,1.67
2019-03-22T04:01:50.141Z,1.58
2019-03-22T04:04:39.076Z,1.53
2019-03-22T04:09:45.165Z,1.45
2019-03-22T04:12:36.514Z,1.26
2019-03-22T04:18:27.619Z,1.17
2019-03-22T04:20:57.500Z,1.17
2019-03-22T04:23:27.531Z,1.12
2019-03-22T04:25:57.497Z,1.10
2019-03-22T04:28:27.511Z,1.04
2019-03-22T04:31:16.222Z,0.93
2019-03-22T04:33:46.801Z,0.93
2019-03-22T04:36:19.194Z,0.84
2019-03-22T04:38:49.166Z,0.76
2019-03-22T04:41:19.264Z,0.68
2019-03-22T04:43:49.481Z,0.61
2019-03-22T04:46:58.501Z,0.57
2019-03-22T04:55:34.250Z,0.51
2019-03-22T05:01:24.764Z,0.36
2019-03-22T05:03:55.205Z,0.36
2019-03-22T05:06:45.490Z,0.32
2019-03-22T05:09:35.686Z,0.32
2019-03-22T05:18:08.201Z,0.28
2019-03-22T05:20:44.241Z,0.28
2019-03-22T05:23:34.900Z,0.29
2019-03-22T05:32:20.831Z,0.26
2019-03-22T05:37:33.151Z,0.28
2019-03-22T05:40:06.307Z,0.30
2019-03-22T05:42:36.510Z,0.35
2019-03-22T05:47:42.359Z,0.40
2019-03-22T05:50:12.552Z,0.47
2019-03-22T05:53:01.347Z,0.62
2019-03-22T05:58:07.424Z,0.67
2019-03-22T06:03:32.183Z,0.81
2019-03-22T06:06:02.207Z,0.81
2019-03-22T06:08:50.979Z,0.89
2019-03-22T06:11:39.814Z,0.89
2019-03-22T06:16:59.178Z,0.94
2019-03-22T06:19:29.144Z,1.03
2019-03-22T06:21:59.417Z,1.13
2019-03-22T06:24:48.176Z,1.34
2019-03-22T06:27:29.531Z,1.47
2019-03-22T06:29:59.707Z,1.47
2019-03-22T06:32:48.382Z,1.72
2019-03-22T06:35:29.345Z,1.79
2019-03-22T06:40:54.863Z,1.95
2019-03-22T06:43:24.797Z,2.16
2019-03-22T06:45:54.821Z,2.16
2019-03-22T06:51:01.346Z,2.43
2019-03-22T06:53:31.290Z,2.58
2019-03-22T06:56:01.382Z,2.74
2019-03-22T06:58:50.154Z,3.04
2019-03-22T07:01:38.927Z,3.04
2019-03-22T07:12:01.287Z,3.64
2019-03-22T07:14:42.599Z,3.81
2019-03-22T07:17:12.571Z,3.98
2019-03-22T07:19:42.500Z,4.17
2019-03-22T07:22:12.419Z,4.37
2019-03-22T07:24:42.494Z,4.52
2019-03-22T07:30:25.058Z,5.01
2019-03-22T07:32:55.020Z,5.01
2019-03-22T07:35:24.968Z,5.14
2019-03-22T07:37:54.979Z,5.26
2019-03-22T07:40:24.891Z,5.43
2019-03-22T07:42:54.843Z,5.55
2019-03-22T07:45:24.788Z,5.65
2019-03-22T07:47:55.878Z,5.77
2019-03-22T07:50:25.922Z,5.91
2019-03-22T07:52:57.334Z,6.04
2019-03-22T07:55:27.369Z,6.17
2019-03-22T07:57:57.369Z,6.28
2019-03-22T08:03:04.767Z,6.42
2019-03-22T08:08:18.353Z,6.62
2019-03-22T08:13:42.262Z,6.84
2019-03-22T08:16:12.253Z,6.98
2019-03-22T08:18:42.188Z,7.10
2019-03-22T08:21:30.889Z,7.18
2019-03-22T08:24:19.514Z,7.27
2019-03-22T08:26:49.498Z,7.37
2019-03-22T08:29:19.432Z,7.51
2019-03-22T08:31:49.348Z,7.61
2019-03-22T08:34:19.334Z,7.65
2019-03-22T08:36:49.284Z,7.68
2019-03-22T08:39:19.152Z,7.69
2019-03-22T08:41:49.170Z,7.74
2019-03-22T08:44:19.421Z,7.81
2019-03-22T08:46:49.358Z,7.89
2019-03-22T08:49:19.368Z,7.92
2019-03-22T08:51:49.721Z,7.99
2019-03-22T08:57:02.224Z,8.13
2019-03-22T08:59:32.141Z,8.19
2019-03-22T09:02:02.973Z,8.25
2019-03-22T09:04:33.479Z,8.32
2019-03-22T09:07:05.159Z,8.48
2019-03-22T09:09:41.466Z,8.58
2019-03-22T09:12:28.850Z,8.71
2019-03-22T09:14:58.887Z,8.78
2019-03-22T09:17:31.366Z,8.90
2019-03-22T09:20:01.369Z,9.02
2019-03-22T09:22:31.296Z,9.12
2019-03-22T09:25:17.954Z,9.23
2019-03-22T09:27:47.981Z,9.29
2019-03-22T09:30:36.712Z,9.42
2019-03-22T09:36:20.569Z,9.54
2019-03-22T09:38:49.069Z,9.55
2019-03-22T09:41:19.070Z,9.54
2019-03-22T09:43:49.008Z,9.61
2019-03-22T09:46:19.021Z,9.70
2019-03-22T09:48:49.335Z,9.75
2019-03-22T09:51:19.268Z,9.79
2019-03-22T09:53:49.427Z,9.84
2019-03-22T09:56:19.421Z,9.82
2019-03-22T09:58:49.372Z,9.82
2019-03-22T10:01:23.973Z,9.84
2019-03-22T10:03:51.251Z,9.93
2019-03-22T10:06:21.362Z,10.10
2019-03-22T10:08:51.252Z,10.25
2019-03-22T10:14:17.147Z,10.54
2019-03-22T10:16:47.733Z,10.60
2019-03-22T10:19:18.961Z,10.68
2019-03-22T10:22:07.779Z,10.75
2019-03-22T10:24:37.746Z,10.76
2019-03-22T10:27:07.827Z,10.80
2019-03-22T10:29:37.921Z,10.82
2019-03-22T10:32:07.793Z,10.86
2019-03-22T10:34:39.733Z,10.85
2019-03-22T10:37:09.423Z,10.95
2019-03-22T10:39:50.402Z,11.01
2019-03-22T10:42:20.367Z,11.09
2019-03-22T10:44:50.314Z,11.16
2019-03-22T10:47:20.284Z,11.25
2019-03-22T10:49:50.242Z,11.32
2019-03-22T10:52:20.253Z,11.39
2019-03-22T10:54:50.151Z,11.45
2019-03-22T10:57:20.121Z,11.41
2019-03-22T10:59:50.076Z,11.42
2019-03-22T11:02:19.991Z,11.49
2019-03-22T11:04:50.051Z,11.51
2019-03-22T11:07:20.072Z,11.59
2019-03-22T11:09:50.043Z,11.74
2019-03-22T11:15:09.953Z,12.06
2019-03-22T11:17:40.092Z,12.32
2019-03-22T11:23:21.235Z,12.76
2019-03-22T11:25:51.193Z,12.78
2019-03-22T11:28:21.197Z,12.84
2019-03-22T11:31:09.709Z,12.96
2019-03-22T11:33:39.692Z,13.06
2019-03-22T11:36:09.649Z,13.01
2019-03-22T11:38:39.613Z,12.98
2019-03-22T11:41:20.729Z,12.91
2019-03-22T11:43:50.991Z,12.78
2019-03-22T11:46:27.510Z,12.57
2019-03-22T11:51:48.064Z,12.29
2019-03-22T11:54:18.450Z,12.27
2019-03-22T11:56:48.441Z,12.45
2019-03-22T11:59:18.684Z,12.72
2019-03-22T12:02:08.883Z,12.92
2019-03-22T12:04:38.850Z,13.16
2019-03-22T12:07:08.786Z,13.48
2019-03-22T12:09:38.737Z,13.69
2019-03-22T12:12:08.735Z,13.81
2019-03-22T12:14:38.660Z,13.83
2019-03-22T12:17:08.603Z,13.85
2019-03-22T12:19:38.576Z,13.86
2019-03-22T12:22:08.616Z,13.87
2019-03-22T12:24:38.601Z,13.89
2019-03-22T12:27:08.568Z,13.95
2019-03-22T12:29:38.556Z,13.96
2019-03-22T12:32:08.673Z,13.90
2019-03-22T12:34:38.683Z,13.99
2019-03-22T12:37:27.460Z,13.99
2019-03-22T12:39:57.509Z,13.98
2019-03-22T12:45:51.922Z,13.84
2019-03-22T12:48:21.897Z,13.81
2019-03-22T12:50:51.838Z,13.87
2019-03-22T12:53:21.103Z,13.99
2019-03-22T12:55:51.112Z,14.03
2019-03-22T12:58:21.045Z,14.11
2019-03-22T13:00:51.081Z,14.28
2019-03-22T13:03:21.047Z,14.38
2019-03-22T13:05:51.015Z,14.42
2019-03-22T13:08:21.092Z,14.32
2019-03-22T13:10:51.091Z,14.26
2019-03-22T13:13:21.071Z,14.12
2019-03-22T13:15:51.064Z,14.08
2019-03-22T13:18:20.997Z,14.11
2019-03-22T13:20:51.221Z,14.03
2019-03-22T13:23:22.760Z,13.93
2019-03-22T13:25:53.241Z,13.84
2019-03-22T13:28:23.215Z,13.85
2019-03-22T13:30:53.191Z,13.87
2019-03-22T13:33:23.210Z,13.86
2019-03-22T13:35:53.173Z,13.83
2019-03-22T13:38:23.216Z,13.75
2019-03-22T13:41:12.040Z,13.63
2019-03-22T13:43:44.410Z,13.48
2019-03-22T13:46:14.328Z,13.43
2019-03-22T13:48:44.307Z,13.37
2019-03-22T13:51:14.315Z,13.45
2019-03-22T13:53:44.315Z,13.48
2019-03-22T13:56:14.271Z,13.53
2019-03-22T13:58:44.373Z,13.61
2019-03-22T14:01:14.369Z,13.65
2019-03-22T14:03:44.352Z,13.71
2019-03-22T14:06:33.169Z,13.72
2019-03-22T14:11:57.526Z,13.70
2019-03-22T14:14:27.481Z,13.75
2019-03-22T14:16:57.441Z,13.79
2019-03-22T14:19:27.506Z,13.82
2019-03-22T14:21:57.526Z,13.84
2019-03-22T14:24:27.545Z,13.85
2019-03-22T14:26:57.741Z,13.88
2019-03-22T14:29:27.778Z,13.89
2019-03-22T14:31:57.824Z,13.86
2019-03-22T14:34:27.851Z,13.87
2019-03-22T14:36:57.950Z,13.90
2019-03-22T14:39:46.813Z,13.94
2019-03-22T14:45:00.662Z,13.96
2019-03-22T14:50:19.880Z,13.87
2019-03-22T14:52:50.309Z,13.80
2019-03-22T14:55:39.042Z,13.73
2019-03-22T15:01:03.942Z,13.81
2019-03-22T15:03:34.229Z,13.87
2019-03-22T15:06:04.276Z,13.91
2019-03-22T15:08:34.306Z,13.94
2019-03-22T15:14:32.439Z,14.02
2019-03-22T15:17:21.326Z,14.07
2019-03-22T15:20:10.171Z,14.11
2019-03-22T15:22:59.000Z,14.13
2019-03-22T15:25:47.936Z,14.12
2019-03-22T15:28:36.792Z,14.08
2019-03-22T15:31:25.906Z,14.05
2019-03-22T15:37:09.187Z,14.16
2019-03-22T15:40:05.538Z,14.23
2019-03-22T15:42:35.605Z,14.23
2019-03-22T15:50:51.821Z,14.14
2019-03-22T15:53:43.861Z,14.12
2019-03-22T15:56:13.999Z,14.12
2019-03-22T15:58:44.244Z,14.06
2019-03-22T16:01:14.364Z,14.04
2019-03-22T16:03:44.710Z,14.02
2019-03-22T16:06:14.755Z,13.99
2019-03-22T16:08:47.387Z,13.96
2019-03-22T16:11:37.446Z,13.91
2019-03-22T16:14:07.513Z,13.85
2019-03-22T16:16:40.285Z,13.83
2019-03-22T16:19:10.208Z,13.84
2019-03-22T16:21:40.168Z,13.86
2019-03-22T16:24:10.121Z,13.96
2019-03-22T16:27:04.156Z,14.02
2019-03-22T16:29:36.600Z,14.01
2019-03-22T16:32:06.544Z,13.95
2019-03-22T16:34:55.327Z,13.84
2019-03-22T16:37:25.260Z,13.75
2019-03-22T16:40:06.081Z,13.64
2019-03-22T16:45:44.908Z,13.44
2019-03-22T16:48:14.887Z,13.31
2019-03-22T16:50:47.229Z,13.20
2019-03-22T16:53:17.605Z,13.08
2019-03-22T16:55:47.665Z,12.98
2019-03-22T16:58:17.696Z,12.88
2019-03-22T17:00:49.897Z,12.75
2019-03-22T17:06:01.272Z,12.56
2019-03-22T17:08:31.321Z,12.45
2019-03-22T17:11:01.312Z,12.36
2019-03-22T17:16:06.750Z,12.19
2019-03-22T17:18:39.801Z,12.09
2019-03-22T17:21:09.767Z,11.99
2019-03-22T17:23:39.715Z,11.90
2019-03-22T17:26:09.770Z,11.82
2019-03-22T17:28:39.718Z,11.74
2019-03-22T17:31:09.719Z,11.68
2019-03-22T17:33:39.772Z,11.59
2019-03-22T17:36:09.719Z,11.55
2019-03-22T17:38:39.670Z,11.48
2019-03-22T17:41:10.135Z,11.42
2019-03-22T17:43:40.065Z,11.34
2019-03-22T17:46:10.053Z,11.30
2019-03-22T17:48:40.007Z,11.24
2019-03-22T17:51:09.980Z,11.17
2019-03-22T17:53:39.987Z,11.12
2019-03-22T17:56:10.064Z,11.05
2019-03-22T17:58:40.015Z,11.00
2019-03-22T18:01:09.946Z,10.93
2019-03-22T18:06:15.802Z,10.81
2019-03-22T18:11:27.177Z,10.65
2019-03-22T18:14:00.076Z,10.59
2019-03-22T18:16:30.080Z,10.53
2019-03-22T18:19:00.390Z,10.50
2019-03-22T18:21:30.633Z,10.44
2019-03-22T18:24:00.596Z,10.39
2019-03-22T18:29:06.044Z,10.31
2019-03-22T18:31:36.076Z,10.30
2019-03-22T18:34:06.166Z,10.27
2019-03-22T18:36:36.181Z,10.26
2019-03-22T18:39:08.605Z,10.25
2019-03-22T18:44:24.125Z,10.23
2019-03-22T18:46:54.238Z,10.24
2019-03-22T18:49:24.221Z,10.21
2019-03-22T18:51:54.431Z,10.21
2019-03-22T18:54:24.347Z,10.21
2019-03-22T18:57:13.219Z,10.17
2019-03-22T19:02:36.375Z,10.13
2019-03-22T19:05:08.008Z,10.11
2019-03-22T19:07:37.976Z,10.09
2019-03-22T19:10:09.991Z,10.06
2019-03-22T19:12:39.976Z,10.05
2019-03-22T19:15:10.967Z,10.00
2019-03-22T19:18:10.906Z,9.96
2019-03-22T19:20:52.201Z,9.93
2019-03-22T19:23:22.164Z,9.90
2019-03-22T19:25:52.215Z,9.87
2019-03-22T19:28:22.226Z,9.84
2019-03-22T19:33:27.334Z,9.76
2019-03-22T19:35:59.392Z,9.71
2019-03-22T19:41:18.346Z,9.56
2019-03-22T19:43:48.282Z,9.52
2019-03-22T19:46:37.073Z,9.47
2019-03-22T19:49:07.570Z,9.42
2019-03-22T19:51:37.478Z,9.36
2019-03-22T19:54:07.639Z,9.32
2019-03-22T19:56:37.559Z,9.27
2019-03-22T19:59:07.519Z,9.25
2019-03-22T20:01:37.489Z,9.20
2019-03-22T20:04:17.745Z,9.16
2019-03-22T20:07:06.472Z,9.09
2019-03-22T20:09:36.572Z,9.03
2019-03-22T20:12:07.047Z,8.96
2019-03-22T20:14:36.963Z,8.89
2019-03-22T20:17:06.922Z,8.85
2019-03-22T20:19:41.657Z,8.80
2019-03-22T20:22:11.782Z,8.75
2019-03-22T20:24:41.721Z,8.67
2019-03-22T20:27:11.739Z,8.63
2019-03-22T20:30:02.091Z,8.58
2019-03-22T20:32:43.404Z,8.51
2019-03-22T20:35:17.278Z,8.46
2019-03-22T20:37:47.254Z,8.40
2019-03-22T20:40:56.321Z,8.34
2019-03-22T20:43:26.356Z,8.28
2019-03-22T20:48:45.291Z,8.17
2019-03-22T20:51:35.663Z,8.12
2019-03-22T20:54:06.348Z,8.09
2019-03-22T20:59:25.381Z,8.04
2019-03-22T21:01:55.383Z,8.01
2019-03-22T21:04:25.350Z,7.98
2019-03-22T21:06:56.746Z,7.94
2019-03-22T21:09:26.695Z,7.90
2019-03-22T21:11:56.595Z,7.86
2019-03-22T21:14:26.531Z,7.83
2019-03-22T21:16:56.601Z,7.81
2019-03-22T21:19:26.537Z,7.78
2019-03-22T21:21:56.598Z,7.76
2019-03-22T21:24:26.471Z,7.71
2019-03-22T21:26:56.684Z,7.72
2019-03-22T21:29:26.637Z,7.72
2019-03-22T21:31:56.552Z,7.68
2019-03-22T21:34:38.037Z,7.66
2019-03-22T21:37:08.517Z,7.71
2019-03-22T21:39:38.525Z,7.77
2019-03-22T21:42:08.438Z,7.79
2019-03-22T21:44:38.398Z,7.86
2019-03-22T21:47:08.796Z,7.93
2019-03-22T21:49:38.757Z,7.98
2019-03-22T21:52:08.694Z,8.02
2019-03-22T21:54:38.609Z,8.08
2019-03-22T21:57:08.885Z,8.08
2019-03-22T21:59:38.792Z,8.11
2019-03-22T22:02:08.816Z,8.14
2019-03-22T22:07:14.841Z,8.17
2019-03-22T22:10:03.484Z,8.19
2019-03-22T22:12:33.493Z,8.21
2019-03-22T22:15:03.541Z,8.22
2019-03-22T22:17:33.530Z,8.24
2019-03-22T22:20:03.568Z,8.28
2019-03-22T22:22:33.583Z,8.29
2019-03-22T22:25:08.156Z,8.28
2019-03-22T22:27:38.127Z,8.31
2019-03-22T22:30:08.888Z,8.36
2019-03-22T22:32:38.847Z,8.40
2019-03-22T22:35:20.283Z,8.42
2019-03-22T22:40:25.437Z,8.49
2019-03-22T22:42:55.474Z,8.52
2019-03-22T22:45:25.376Z,8.55
2019-03-22T22:47:55.418Z,8.57
2019-03-22T22:50:25.354Z,8.56
2019-03-22T22:52:55.283Z,8.57
2019-03-22T22:55:25.242Z,8.58
2019-03-22T22:57:55.362Z,8.62
2019-03-22T23:03:16.257Z,8.65
2019-03-22T23:05:46.311Z,8.67
2019-03-22T23:08:34.958Z,8.66
2019-03-22T23:11:05.277Z,8.65
2019-03-22T23:13:35.315Z,8.65
2019-03-22T23:16:05.435Z,8.67
2019-03-22T23:18:35.661Z,8.67
2019-03-22T23:21:05.606Z,8.70
2019-03-22T23:23:35.609Z,8.70
2019-03-22T23:26:05.909Z,8.68
2019-03-22T23:28:54.573Z,8.65
2019-03-22T23:31:24.488Z,8.63
2019-03-22T23:33:54.492Z,8.64
2019-03-22T23:36:34.952Z,8.66
2019-03-22T23:42:01.511Z,8.67
2019-03-22T23:44:31.558Z,8.67
2019-03-22T23:47:01.815Z,8.64
2019-03-22T23:52:07.112Z,8.63
2019-03-22T23:54:37.602Z,8.65
2019-03-22T23:59:58.324Z,8.64
